sensor_id;sensor_type;location;lat;lon;timestamp;P1;durP1;ratioP1;P2;durP2;ratioP2
63342;SDS011;49465;57.664;39.686;2022-08-30T00:00:25;12.50;;;5.38;;
63342;SDS011;49465;57.664;39.686;2022-08-30T00:03:35;12.98;;;5.20;;
63342;SDS011;49465;57.664;39.686;2022-08-30T00:06:26;16.48;;;5.65;;
63342;SDS011;49465;57.664;39.686;2022-08-30T00:09:09;15.02;;;5.53;;
63342;SDS011;49465;57.664;39.686;2022-08-30T00:11:53;17.15;;;5.22;;
63342;SDS011;49465;57.664;39.686;2022-08-30T00:14:32;13.77;;;5.43;;
63342;SDS011;49465;57.664;39.686;2022-08-30T00:17:24;15.20;;;5.57;;
63342;SDS011;49465;57.664;39.686;2022-08-30T00:20:20;16.23;;;5.50;;
63342;SDS011;49465;57.664;39.686;2022-08-30T00:23:06;18.10;;;5.43;;
63342;SDS011;49465;57.664;39.686;2022-08-30T00:25:58;16.45;;;5.57;;
63342;SDS011;49465;57.664;39.686;2022-08-30T00:28:36;12.05;;;5.18;;
63342;SDS011;49465;57.664;39.686;2022-08-30T00:31:23;11.68;;;5.30;;
63342;SDS011;49465;57.664;39.686;2022-08-30T00:34:06;16.27;;;6.57;;
63342;SDS011;49465;57.664;39.686;2022-08-30T00:36:41;15.98;;;5.90;;
63342;SDS011;49465;57.664;39.686;2022-08-30T00:39:31;12.35;;;5.13;;
63342;SDS011;49465;57.664;39.686;2022-08-30T00:42:21;18.33;;;5.40;;
63342;SDS011;49465;57.664;39.686;2022-08-30T00:45:15;14.70;;;5.28;;
63342;SDS011;49465;57.664;39.686;2022-08-30T00:47:49;14.13;;;5.50;;
63342;SDS011;49465;57.664;39.686;2022-08-30T00:50:33;14.52;;;4.97;;
63342;SDS011;49465;57.664;39.686;2022-08-30T00:53:13;12.32;;;5.45;;
63342;SDS011;49465;57.664;39.686;2022-08-30T00:56:00;13.93;;;5.63;;
63342;SDS011;49465;57.664;39.686;2022-08-30T00:58:33;14.43;;;5.32;;
63342;SDS011;49465;57.664;39.686;2022-08-30T01:01:18;15.25;;;5.40;;
63342;SDS011;49465;57.664;39.686;2022-08-30T01:03:50;11.13;;;5.13;;
63342;SDS011;49465;57.664;39.686;2022-08-30T01:06:26;12.85;;;5.57;;
63342;SDS011;49465;57.664;39.686;2022-08-30T01:09:10;9.65;;;5.10;;
63342;SDS011;49465;57.664;39.686;2022-08-30T01:11:45;9.05;;;4.65;;
63342;SDS011;49465;57.664;39.686;2022-08-30T01:14:28;13.98;;;5.00;;
63342;SDS011;49465;57.664;39.686;2022-08-30T01:17:16;13.73;;;4.72;;
63342;SDS011;49465;57.664;39.686;2022-08-30T01:20:00;14.23;;;5.18;;
63342;SDS011;49465;57.664;39.686;2022-08-30T01:25:48;19.27;;;7.10;;
63342;SDS011;49465;57.664;39.686;2022-08-30T01:28:38;29.08;;;9.38;;
63342;SDS011;49465;57.664;39.686;2022-08-30T01:31:17;25.27;;;10.52;;
63342;SDS011;49465;57.664;39.686;2022-08-30T01:34:04;33.53;;;10.57;;
63342;SDS011;49465;57.664;39.686;2022-08-30T01:36:36;26.38;;;10.60;;
63342;SDS011;49465;57.664;39.686;2022-08-30T01:39:19;24.38;;;9.95;;
63342;SDS011;49465;57.664;39.686;2022-08-30T01:42:15;26.88;;;9.85;;
63342;SDS011;49465;57.664;39.686;2022-08-30T01:45:01;19.42;;;9.13;;
63342;SDS011;49465;57.664;39.686;2022-08-30T01:47:53;26.35;;;8.88;;
63342;SDS011;49465;57.664;39.686;2022-08-30T01:50:25;23.00;;;10.23;;
63342;SDS011;49465;57.664;39.686;2022-08-30T01:53:17;23.17;;;9.68;;
63342;SDS011;49465;57.664;39.686;2022-08-30T01:55:56;25.13;;;9.60;;
63342;SDS011;49465;57.664;39.686;2022-08-30T01:58:43;27.85;;;10.18;;
63342;SDS011;49465;57.664;39.686;2022-08-30T02:01:11;27.92;;;10.52;;
63342;SDS011;49465;57.664;39.686;2022-08-30T02:03:58;34.30;;;11.40;;
63342;SDS011;49465;57.664;39.686;2022-08-30T02:06:50;29.25;;;11.52;;
63342;SDS011;49465;57.664;39.686;2022-08-30T02:09:39;26.83;;;11.63;;
63342;SDS011;49465;57.664;39.686;2022-08-30T02:12:15;27.85;;;11.40;;
63342;SDS011;49465;57.664;39.686;2022-08-30T02:15:00;29.47;;;11.93;;
63342;SDS011;49465;57.664;39.686;2022-08-30T02:17:28;33.15;;;11.35;;
63342;SDS011;49465;57.664;39.686;2022-08-30T02:20:19;28.40;;;10.98;;
63342;SDS011;49465;57.664;39.686;2022-08-30T02:22:53;35.45;;;11.38;;
63342;SDS011;49465;57.664;39.686;2022-08-30T02:28:27;29.92;;;11.93;;
63342;SDS011;49465;57.664;39.686;2022-08-30T02:31:29;29.05;;;10.43;;
63342;SDS011;49465;57.664;39.686;2022-08-30T02:34:07;23.65;;;10.40;;
63342;SDS011;49465;57.664;39.686;2022-08-30T02:36:41;26.65;;;11.00;;
63342;SDS011;49465;57.664;39.686;2022-08-30T02:39:20;24.08;;;10.75;;
63342;SDS011;49465;57.664;39.686;2022-08-30T02:41:49;29.65;;;11.23;;
63342;SDS011;49465;57.664;39.686;2022-08-30T02:44:33;28.30;;;10.63;;
63342;SDS011;49465;57.664;39.686;2022-08-30T02:50:05;21.60;;;8.73;;
63342;SDS011;49465;57.664;39.686;2022-08-30T02:52:40;19.88;;;9.05;;
63342;SDS011;49465;57.664;39.686;2022-08-30T02:55:21;23.05;;;8.98;;
63342;SDS011;49465;57.664;39.686;2022-08-30T02:58:00;24.83;;;8.90;;
63342;SDS011;49465;57.664;39.686;2022-08-30T03:00:44;19.27;;;8.68;;
63342;SDS011;49465;57.664;39.686;2022-08-30T03:03:47;22.45;;;9.50;;
63342;SDS011;49465;57.664;39.686;2022-08-30T03:06:19;22.40;;;9.55;;
63342;SDS011;49465;57.664;39.686;2022-08-30T03:09:01;23.23;;;8.80;;
63342;SDS011;49465;57.664;39.686;2022-08-30T03:11:39;21.80;;;8.98;;
63342;SDS011;49465;57.664;39.686;2022-08-30T03:17:13;21.17;;;8.00;;
63342;SDS011;49465;57.664;39.686;2022-08-30T03:19:40;15.07;;;7.53;;
63342;SDS011;49465;57.664;39.686;2022-08-30T03:22:29;16.77;;;7.07;;
63342;SDS011;49465;57.664;39.686;2022-08-30T03:25:10;20.95;;;8.25;;
63342;SDS011;49465;57.664;39.686;2022-08-30T03:27:52;19.08;;;7.88;;
63342;SDS011;49465;57.664;39.686;2022-08-30T03:30:25;20.05;;;8.30;;
63342;SDS011;49465;57.664;39.686;2022-08-30T03:33:00;23.05;;;8.23;;
63342;SDS011;49465;57.664;39.686;2022-08-30T03:35:33;22.58;;;8.35;;
63342;SDS011;49465;57.664;39.686;2022-08-30T03:38:13;22.00;;;8.73;;
63342;SDS011;49465;57.664;39.686;2022-08-30T03:40:54;19.65;;;8.20;;
63342;SDS011;49465;57.664;39.686;2022-08-30T03:43:52;17.90;;;8.07;;
63342;SDS011;49465;57.664;39.686;2022-08-30T03:46:33;20.63;;;8.18;;
63342;SDS011;49465;57.664;39.686;2022-08-30T03:49:08;19.92;;;8.15;;
63342;SDS011;49465;57.664;39.686;2022-08-30T03:52:07;16.95;;;8.43;;
63342;SDS011;49465;57.664;39.686;2022-08-30T03:54:44;23.02;;;9.57;;
63342;SDS011;49465;57.664;39.686;2022-08-30T03:57:36;23.05;;;9.10;;
63342;SDS011;49465;57.664;39.686;2022-08-30T04:00:10;28.65;;;10.20;;
63342;SDS011;49465;57.664;39.686;2022-08-30T04:02:56;30.33;;;10.75;;
63342;SDS011;49465;57.664;39.686;2022-08-30T04:05:36;24.33;;;10.25;;
63342;SDS011;49465;57.664;39.686;2022-08-30T04:08:08;27.65;;;9.93;;
63342;SDS011;49465;57.664;39.686;2022-08-30T04:10:51;25.15;;;10.60;;
63342;SDS011;49465;57.664;39.686;2022-08-30T04:13:43;25.33;;;10.77;;
63342;SDS011;49465;57.664;39.686;2022-08-30T04:16:32;27.85;;;10.43;;
63342;SDS011;49465;57.664;39.686;2022-08-30T04:19:12;23.63;;;10.82;;
63342;SDS011;49465;57.664;39.686;2022-08-30T04:21:59;26.05;;;10.52;;
63342;SDS011;49465;57.664;39.686;2022-08-30T04:24:46;24.08;;;9.77;;
63342;SDS011;49465;57.664;39.686;2022-08-30T04:27:56;23.25;;;10.05;;
63342;SDS011;49465;57.664;39.686;2022-08-30T04:30:42;22.20;;;9.75;;
63342;SDS011;49465;57.664;39.686;2022-08-30T04:33:41;27.98;;;10.15;;
63342;SDS011;49465;57.664;39.686;2022-08-30T04:36:36;24.92;;;9.48;;
63342;SDS011;49465;57.664;39.686;2022-08-30T04:39:11;21.52;;;9.68;;
63342;SDS011;49465;57.664;39.686;2022-08-30T04:42:30;24.60;;;9.65;;
63342;SDS011;49465;57.664;39.686;2022-08-30T04:45:10;22.80;;;10.23;;
63342;SDS011;49465;57.664;39.686;2022-08-30T04:48:00;27.73;;;10.60;;
63342;SDS011;49465;57.664;39.686;2022-08-30T04:50:54;25.77;;;9.40;;
63342;SDS011;49465;57.664;39.686;2022-08-30T04:53:42;23.90;;;9.93;;
63342;SDS011;49465;57.664;39.686;2022-08-30T04:56:29;20.00;;;9.88;;
63342;SDS011;49465;57.664;39.686;2022-08-30T04:59:20;22.33;;;9.65;;
63342;SDS011;49465;57.664;39.686;2022-08-30T05:01:59;27.85;;;9.82;;
63342;SDS011;49465;57.664;39.686;2022-08-30T05:04:45;25.08;;;9.70;;
63342;SDS011;49465;57.664;39.686;2022-08-30T05:07:43;22.00;;;10.23;;
63342;SDS011;49465;57.664;39.686;2022-08-30T05:10:33;23.88;;;10.07;;
63342;SDS011;49465;57.664;39.686;2022-08-30T05:13:04;22.52;;;9.65;;
63342;SDS011;49465;57.664;39.686;2022-08-30T05:15:50;26.05;;;11.05;;
63342;SDS011;49465;57.664;39.686;2022-08-30T05:18:34;21.30;;;10.25;;
63342;SDS011;49465;57.664;39.686;2022-08-30T05:21:20;21.33;;;9.75;;
63342;SDS011;49465;57.664;39.686;2022-08-30T05:23:58;21.08;;;10.00;;
63342;SDS011;49465;57.664;39.686;2022-08-30T05:26:51;22.48;;;9.60;;
63342;SDS011;49465;57.664;39.686;2022-08-30T05:29:24;24.85;;;10.10;;
63342;SDS011;49465;57.664;39.686;2022-08-30T05:32:09;23.60;;;9.63;;
63342;SDS011;49465;57.664;39.686;2022-08-30T05:40:15;21.15;;;8.27;;
63342;SDS011;49465;57.664;39.686;2022-08-30T05:42:56;23.33;;;9.40;;
63342;SDS011;49465;57.664;39.686;2022-08-30T05:45:28;23.27;;;10.23;;
63342;SDS011;49465;57.664;39.686;2022-08-30T05:48:11;15.73;;;8.38;;
63342;SDS011;49465;57.664;39.686;2022-08-30T05:50:42;21.23;;;7.60;;
63342;SDS011;49465;57.664;39.686;2022-08-30T05:53:13;17.98;;;8.50;;
63342;SDS011;49465;57.664;39.686;2022-08-30T05:55:51;18.60;;;7.22;;
63342;SDS011;49465;57.664;39.686;2022-08-30T05:58:26;18.75;;;8.00;;
63342;SDS011;49465;57.664;39.686;2022-08-30T06:01:01;16.63;;;7.30;;
63342;SDS011;49465;57.664;39.686;2022-08-30T06:03:52;15.13;;;6.80;;
63342;SDS011;49465;57.664;39.686;2022-08-30T06:06:32;21.25;;;6.70;;
63342;SDS011;49465;57.664;39.686;2022-08-30T06:09:27;16.08;;;6.72;;
63342;SDS011;49465;57.664;39.686;2022-08-30T06:12:05;20.63;;;7.00;;
63342;SDS011;49465;57.664;39.686;2022-08-30T06:14:52;12.63;;;7.18;;
63342;SDS011;49465;57.664;39.686;2022-08-30T06:17:53;18.88;;;9.48;;
63342;SDS011;49465;57.664;39.686;2022-08-30T06:20:42;13.30;;;5.68;;
63342;SDS011;49465;57.664;39.686;2022-08-30T06:23:31;17.33;;;5.38;;
63342;SDS011;49465;57.664;39.686;2022-08-30T06:26:16;11.43;;;4.95;;
63342;SDS011;49465;57.664;39.686;2022-08-30T06:28:54;13.07;;;4.70;;
63342;SDS011;49465;57.664;39.686;2022-08-30T06:31:32;14.90;;;5.70;;
63342;SDS011;49465;57.664;39.686;2022-08-30T06:34:32;11.88;;;5.22;;
63342;SDS011;49465;57.664;39.686;2022-08-30T06:37:18;11.00;;;4.55;;
63342;SDS011;49465;57.664;39.686;2022-08-30T06:39:56;13.20;;;4.78;;
63342;SDS011;49465;57.664;39.686;2022-08-30T06:42:31;12.63;;;5.00;;
63342;SDS011;49465;57.664;39.686;2022-08-30T06:45:05;11.65;;;5.63;;
63342;SDS011;49465;57.664;39.686;2022-08-30T06:47:33;12.20;;;5.75;;
63342;SDS011;49465;57.664;39.686;2022-08-30T06:50:10;16.35;;;5.63;;
63342;SDS011;49465;57.664;39.686;2022-08-30T06:52:51;13.25;;;5.50;;
63342;SDS011;49465;57.664;39.686;2022-08-30T06:55:35;11.60;;;5.80;;
63342;SDS011;49465;57.664;39.686;2022-08-30T06:58:09;12.23;;;6.35;;
63342;SDS011;49465;57.664;39.686;2022-08-30T07:00:43;18.67;;;7.10;;
63342;SDS011;49465;57.664;39.686;2022-08-30T07:03:20;14.00;;;6.80;;
63342;SDS011;49465;57.664;39.686;2022-08-30T07:05:58;13.45;;;6.90;;
63342;SDS011;49465;57.664;39.686;2022-08-30T07:08:39;14.68;;;6.32;;
63342;SDS011;49465;57.664;39.686;2022-08-30T07:11:30;21.35;;;6.75;;
63342;SDS011;49465;57.664;39.686;2022-08-30T07:14:12;20.38;;;6.75;;
63342;SDS011;49465;57.664;39.686;2022-08-30T07:16:53;45.17;;;9.27;;
63342;SDS011;49465;57.664;39.686;2022-08-30T07:19:52;22.42;;;7.07;;
63342;SDS011;49465;57.664;39.686;2022-08-30T07:22:24;19.15;;;6.57;;
63342;SDS011;49465;57.664;39.686;2022-08-30T07:24:58;18.27;;;6.43;;
63342;SDS011;49465;57.664;39.686;2022-08-30T07:27:44;10.75;;;6.18;;
63342;SDS011;49465;57.664;39.686;2022-08-30T07:30:30;18.92;;;6.43;;
63342;SDS011;49465;57.664;39.686;2022-08-30T07:33:04;16.70;;;6.25;;
63342;SDS011;49465;57.664;39.686;2022-08-30T07:35:41;12.23;;;5.97;;
63342;SDS011;49465;57.664;39.686;2022-08-30T07:38:22;15.05;;;6.15;;
63342;SDS011;49465;57.664;39.686;2022-08-30T07:40:53;13.70;;;5.97;;
63342;SDS011;49465;57.664;39.686;2022-08-30T07:43:27;13.85;;;5.80;;
63342;SDS011;49465;57.664;39.686;2022-08-30T07:46:04;12.32;;;5.72;;
63342;SDS011;49465;57.664;39.686;2022-08-30T07:48:44;10.98;;;5.57;;
63342;SDS011;49465;57.664;39.686;2022-08-30T07:51:32;15.20;;;5.32;;
63342;SDS011;49465;57.664;39.686;2022-08-30T07:54:09;11.90;;;5.10;;
63342;SDS011;49465;57.664;39.686;2022-08-30T07:56:41;13.52;;;4.65;;
63342;SDS011;49465;57.664;39.686;2022-08-30T07:59:22;8.00;;;4.15;;
63342;SDS011;49465;57.664;39.686;2022-08-30T08:01:57;8.18;;;3.33;;
63342;SDS011;49465;57.664;39.686;2022-08-30T08:05:01;13.48;;;3.28;;
63342;SDS011;49465;57.664;39.686;2022-08-30T08:07:40;7.47;;;3.40;;
63342;SDS011;49465;57.664;39.686;2022-08-30T08:10:21;10.75;;;3.97;;
63342;SDS011;49465;57.664;39.686;2022-08-30T08:12:48;12.60;;;4.28;;
63342;SDS011;49465;57.664;39.686;2022-08-30T08:15:32;12.57;;;4.35;;
63342;SDS011;49465;57.664;39.686;2022-08-30T08:18:09;10.18;;;4.38;;
63342;SDS011;49465;57.664;39.686;2022-08-30T08:20:49;9.20;;;4.53;;
63342;SDS011;49465;57.664;39.686;2022-08-30T08:23:35;27.20;;;19.48;;
63342;SDS011;49465;57.664;39.686;2022-08-30T08:28:52;16.50;;;7.05;;
63342;SDS011;49465;57.664;39.686;2022-08-30T08:31:31;10.07;;;5.10;;
63342;SDS011;49465;57.664;39.686;2022-08-30T08:34:14;17.23;;;5.20;;
63342;SDS011;49465;57.664;39.686;2022-08-30T08:36:55;15.18;;;5.10;;
63342;SDS011;49465;57.664;39.686;2022-08-30T08:39:27;16.35;;;5.10;;
63342;SDS011;49465;57.664;39.686;2022-08-30T08:45:00;12.60;;;5.15;;
63342;SDS011;49465;57.664;39.686;2022-08-30T08:47:57;14.52;;;5.32;;
63342;SDS011;49465;57.664;39.686;2022-08-30T08:50:59;13.43;;;5.17;;
63342;SDS011;49465;57.664;39.686;2022-08-30T08:53:59;10.70;;;4.78;;
63342;SDS011;49465;57.664;39.686;2022-08-30T08:57:13;21.92;;;5.00;;
63342;SDS011;49465;57.664;39.686;2022-08-30T08:59:49;14.85;;;4.80;;
63342;SDS011;49465;57.664;39.686;2022-08-30T09:05:16;12.65;;;4.43;;
63342;SDS011;49465;57.664;39.686;2022-08-30T09:08:27;11.23;;;4.57;;
63342;SDS011;49465;57.664;39.686;2022-08-30T09:13:29;10.90;;;4.90;;
63342;SDS011;49465;57.664;39.686;2022-08-30T09:16:14;12.98;;;5.15;;
63342;SDS011;49465;57.664;39.686;2022-08-30T09:19:31;13.40;;;4.88;;
63342;SDS011;49465;57.664;39.686;2022-08-30T09:22:10;11.60;;;4.68;;
63342;SDS011;49465;57.664;39.686;2022-08-30T09:24:46;10.43;;;5.00;;
63342;SDS011;49465;57.664;39.686;2022-08-30T09:27:42;11.50;;;4.60;;
63342;SDS011;49465;57.664;39.686;2022-08-30T09:30:26;12.93;;;4.63;;
63342;SDS011;49465;57.664;39.686;2022-08-30T09:33:11;10.18;;;4.70;;
63342;SDS011;49465;57.664;39.686;2022-08-30T09:35:50;16.08;;;5.10;;
63342;SDS011;49465;57.664;39.686;2022-08-30T09:38:34;13.93;;;4.85;;
63342;SDS011;49465;57.664;39.686;2022-08-30T09:44:19;10.38;;;4.72;;
63342;SDS011;49465;57.664;39.686;2022-08-30T09:46:58;16.63;;;5.10;;
63342;SDS011;49465;57.664;39.686;2022-08-30T09:52:41;10.82;;;4.65;;
63342;SDS011;49465;57.664;39.686;2022-08-30T09:55:41;10.88;;;4.47;;
63342;SDS011;49465;57.664;39.686;2022-08-30T09:58:32;18.10;;;4.70;;
63342;SDS011;49465;57.664;39.686;2022-08-30T10:01:49;26.73;;;5.38;;
63342;SDS011;49465;57.664;39.686;2022-08-30T10:04:35;10.70;;;5.07;;
63342;SDS011;49465;57.664;39.686;2022-08-30T10:07:43;10.65;;;5.00;;
63342;SDS011;49465;57.664;39.686;2022-08-30T10:13:28;13.65;;;4.70;;
63342;SDS011;49465;57.664;39.686;2022-08-30T10:21:54;16.40;;;4.40;;
63342;SDS011;49465;57.664;39.686;2022-08-30T10:24:46;11.32;;;3.95;;
63342;SDS011;49465;57.664;39.686;2022-08-30T10:27:46;17.90;;;4.07;;
63342;SDS011;49465;57.664;39.686;2022-08-30T10:30:35;9.80;;;3.67;;
63342;SDS011;49465;57.664;39.686;2022-08-30T10:36:48;13.23;;;3.78;;
63342;SDS011;49465;57.664;39.686;2022-08-30T10:39:42;11.55;;;3.67;;
63342;SDS011;49465;57.664;39.686;2022-08-30T10:43:07;28.60;;;4.63;;
63342;SDS011;49465;57.664;39.686;2022-08-30T10:46:13;14.25;;;4.20;;
63342;SDS011;49465;57.664;39.686;2022-08-30T10:49:24;12.30;;;3.80;;
63342;SDS011;49465;57.664;39.686;2022-08-30T10:52:23;12.63;;;4.40;;
63342;SDS011;49465;57.664;39.686;2022-08-30T10:55:30;13.20;;;3.88;;
63342;SDS011;49465;57.664;39.686;2022-08-30T10:58:27;14.20;;;4.45;;
63342;SDS011;49465;57.664;39.686;2022-08-30T11:13:15;13.68;;;4.35;;
63342;SDS011;49465;57.664;39.686;2022-08-30T11:18:59;9.48;;;4.05;;
63342;SDS011;49465;57.664;39.686;2022-08-30T11:22:14;11.85;;;4.80;;
63342;SDS011;49465;57.664;39.686;2022-08-30T11:25:11;14.25;;;4.00;;
63342;SDS011;49465;57.664;39.686;2022-08-30T11:28:11;11.77;;;4.15;;
63342;SDS011;49465;57.664;39.686;2022-08-30T11:31:07;9.50;;;4.18;;
63342;SDS011;49465;57.664;39.686;2022-08-30T11:42:58;18.85;;;4.35;;
63342;SDS011;49465;57.664;39.686;2022-08-30T11:46:13;12.23;;;4.40;;
63342;SDS011;49465;57.664;39.686;2022-08-30T11:55:06;17.15;;;4.82;;
63342;SDS011;49465;57.664;39.686;2022-08-30T11:57:53;10.45;;;4.68;;
63342;SDS011;49465;57.664;39.686;2022-08-30T12:00:39;16.23;;;4.47;;
63342;SDS011;49465;57.664;39.686;2022-08-30T12:08:38;10.07;;;4.50;;
63342;SDS011;49465;57.664;39.686;2022-08-30T12:13:54;13.65;;;5.15;;
63342;SDS011;49465;57.664;39.686;2022-08-30T12:16:49;16.98;;;5.50;;
63342;SDS011;49465;57.664;39.686;2022-08-30T12:19:47;21.10;;;6.10;;
63342;SDS011;49465;57.664;39.686;2022-08-30T12:22:27;15.05;;;6.38;;
63342;SDS011;49465;57.664;39.686;2022-08-30T12:25:06;14.48;;;5.93;;
63342;SDS011;49465;57.664;39.686;2022-08-30T12:28:13;18.15;;;5.90;;
63342;SDS011;49465;57.664;39.686;2022-08-30T12:30:57;9.68;;;5.32;;
63342;SDS011;49465;57.664;39.686;2022-08-30T12:33:46;11.93;;;5.25;;
63342;SDS011;49465;57.664;39.686;2022-08-30T12:39:52;14.70;;;4.97;;
63342;SDS011;49465;57.664;39.686;2022-08-30T12:42:32;11.85;;;5.00;;
63342;SDS011;49465;57.664;39.686;2022-08-30T12:45:15;12.45;;;4.40;;
63342;SDS011;49465;57.664;39.686;2022-08-30T12:53:22;8.82;;;4.07;;
63342;SDS011;49465;57.664;39.686;2022-08-30T12:56:42;7.18;;;3.88;;
63342;SDS011;49465;57.664;39.686;2022-08-30T12:59:37;13.48;;;4.10;;
63342;SDS011;49465;57.664;39.686;2022-08-30T13:02:51;10.40;;;6.35;;
63342;SDS011;49465;57.664;39.686;2022-08-30T13:05:35;14.77;;;8.70;;
63342;SDS011;49465;57.664;39.686;2022-08-30T13:08:18;13.45;;;7.38;;
63342;SDS011;49465;57.664;39.686;2022-08-30T13:11:08;11.52;;;6.40;;
63342;SDS011;49465;57.664;39.686;2022-08-30T13:14:39;10.68;;;5.45;;
63342;SDS011;49465;57.664;39.686;2022-08-30T13:17:08;11.60;;;5.53;;
63342;SDS011;49465;57.664;39.686;2022-08-30T13:23:03;13.57;;;5.60;;
63342;SDS011;49465;57.664;39.686;2022-08-30T13:25:32;11.90;;;6.05;;
63342;SDS011;49465;57.664;39.686;2022-08-30T13:28:03;10.02;;;5.60;;
63342;SDS011;49465;57.664;39.686;2022-08-30T13:30:42;13.60;;;5.78;;
63342;SDS011;49465;57.664;39.686;2022-08-30T13:33:13;12.15;;;5.57;;
63342;SDS011;49465;57.664;39.686;2022-08-30T13:36:10;13.10;;;5.68;;
63342;SDS011;49465;57.664;39.686;2022-08-30T13:38:48;11.93;;;5.68;;
63342;SDS011;49465;57.664;39.686;2022-08-30T13:41:15;10.13;;;5.63;;
63342;SDS011;49465;57.664;39.686;2022-08-30T13:43:47;12.45;;;6.22;;
63342;SDS011;49465;57.664;39.686;2022-08-30T13:46:30;14.18;;;6.43;;
63342;SDS011;49465;57.664;39.686;2022-08-30T13:49:11;14.68;;;6.50;;
63342;SDS011;49465;57.664;39.686;2022-08-30T13:52:06;15.98;;;6.65;;
63342;SDS011;49465;57.664;39.686;2022-08-30T13:57:48;15.70;;;6.75;;
63342;SDS011;49465;57.664;39.686;2022-08-30T14:00:28;11.98;;;6.28;;
63342;SDS011;49465;57.664;39.686;2022-08-30T14:03:02;19.33;;;6.72;;
63342;SDS011;49465;57.664;39.686;2022-08-30T14:05:49;14.45;;;6.70;;
63342;SDS011;49465;57.664;39.686;2022-08-30T14:08:28;14.82;;;6.68;;
63342;SDS011;49465;57.664;39.686;2022-08-30T14:11:02;11.20;;;6.32;;
63342;SDS011;49465;57.664;39.686;2022-08-30T14:13:48;12.77;;;6.85;;
63342;SDS011;49465;57.664;39.686;2022-08-30T14:16:18;14.68;;;6.60;;
63342;SDS011;49465;57.664;39.686;2022-08-30T14:18:49;14.35;;;7.28;;
63342;SDS011;49465;57.664;39.686;2022-08-30T14:21:46;15.63;;;7.28;;
63342;SDS011;49465;57.664;39.686;2022-08-30T14:24:33;16.90;;;7.65;;
63342;SDS011;49465;57.664;39.686;2022-08-30T14:30:41;13.10;;;7.53;;
63342;SDS011;49465;57.664;39.686;2022-08-30T14:33:39;15.43;;;7.35;;
63342;SDS011;49465;57.664;39.686;2022-08-30T14:36:11;14.38;;;7.25;;
63342;SDS011;49465;57.664;39.686;2022-08-30T14:38:43;14.38;;;7.15;;
63342;SDS011;49465;57.664;39.686;2022-08-30T14:41:26;14.32;;;7.00;;
63342;SDS011;49465;57.664;39.686;2022-08-30T14:44:15;17.15;;;7.55;;
63342;SDS011;49465;57.664;39.686;2022-08-30T14:46:51;18.15;;;8.00;;
63342;SDS011;49465;57.664;39.686;2022-08-30T14:49:32;17.85;;;7.80;;
63342;SDS011;49465;57.664;39.686;2022-08-30T14:52:17;15.30;;;7.10;;
63342;SDS011;49465;57.664;39.686;2022-08-30T14:55:10;17.83;;;7.30;;
63342;SDS011;49465;57.664;39.686;2022-08-30T14:57:55;12.57;;;7.43;;
63342;SDS011;49465;57.664;39.686;2022-08-30T15:00:43;13.82;;;7.35;;
63342;SDS011;49465;57.664;39.686;2022-08-30T15:03:26;12.18;;;7.75;;
63342;SDS011;49465;57.664;39.686;2022-08-30T15:06:03;19.25;;;7.88;;
63342;SDS011;49465;57.664;39.686;2022-08-30T15:08:39;13.95;;;7.60;;
63342;SDS011;49465;57.664;39.686;2022-08-30T15:11:12;19.90;;;8.50;;
63342;SDS011;49465;57.664;39.686;2022-08-30T15:13:48;15.07;;;8.18;;
63342;SDS011;49465;57.664;39.686;2022-08-30T15:16:25;12.73;;;7.32;;
63342;SDS011;49465;57.664;39.686;2022-08-30T15:21:50;15.18;;;7.60;;
63342;SDS011;49465;57.664;39.686;2022-08-30T15:24:28;17.67;;;8.15;;
63342;SDS011;49465;57.664;39.686;2022-08-30T15:27:04;17.20;;;8.07;;
63342;SDS011;49465;57.664;39.686;2022-08-30T15:29:42;12.85;;;7.82;;
63342;SDS011;49465;57.664;39.686;2022-08-30T15:32:14;14.07;;;7.93;;
63342;SDS011;49465;57.664;39.686;2022-08-30T15:38:10;17.13;;;8.93;;
63342;SDS011;49465;57.664;39.686;2022-08-30T15:40:51;17.17;;;10.93;;
63342;SDS011;49465;57.664;39.686;2022-08-30T15:43:23;17.80;;;12.27;;
63342;SDS011;49465;57.664;39.686;2022-08-30T15:46:43;19.40;;;11.77;;
63342;SDS011;49465;57.664;39.686;2022-08-30T15:49:01;20.65;;;11.48;;
63342;SDS011;49465;57.664;39.686;2022-08-30T15:51:47;19.23;;;11.63;;
63342;SDS011;49465;57.664;39.686;2022-08-30T15:54:18;16.48;;;9.43;;
63342;SDS011;49465;57.664;39.686;2022-08-30T15:57:06;20.50;;;9.00;;
63342;SDS011;49465;57.664;39.686;2022-08-30T15:59:50;14.60;;;7.70;;
63342;SDS011;49465;57.664;39.686;2022-08-30T16:02:31;18.10;;;8.18;;
63342;SDS011;49465;57.664;39.686;2022-08-30T16:05:02;14.60;;;8.05;;
63342;SDS011;49465;57.664;39.686;2022-08-30T16:07:43;19.33;;;8.48;;
63342;SDS011;49465;57.664;39.686;2022-08-30T16:10:15;21.45;;;8.30;;
63342;SDS011;49465;57.664;39.686;2022-08-30T16:13:02;14.95;;;7.75;;
63342;SDS011;49465;57.664;39.686;2022-08-30T16:15:36;17.15;;;8.48;;
63342;SDS011;49465;57.664;39.686;2022-08-30T16:18:13;13.95;;;8.15;;
63342;SDS011;49465;57.664;39.686;2022-08-30T16:20:47;14.00;;;8.43;;
63342;SDS011;49465;57.664;39.686;2022-08-30T16:23:48;14.90;;;9.25;;
63342;SDS011;49465;57.664;39.686;2022-08-30T16:26:32;18.15;;;9.23;;
63342;SDS011;49465;57.664;39.686;2022-08-30T16:29:20;17.60;;;9.18;;
63342;SDS011;49465;57.664;39.686;2022-08-30T16:32:10;15.77;;;8.82;;
63342;SDS011;49465;57.664;39.686;2022-08-30T16:34:51;14.85;;;8.15;;
63342;SDS011;49465;57.664;39.686;2022-08-30T16:37:47;15.00;;;8.35;;
63342;SDS011;49465;57.664;39.686;2022-08-30T16:40:24;15.10;;;7.93;;
63342;SDS011;49465;57.664;39.686;2022-08-30T16:43:12;14.05;;;8.23;;
63342;SDS011;49465;57.664;39.686;2022-08-30T16:45:46;14.85;;;8.20;;
63342;SDS011;49465;57.664;39.686;2022-08-30T16:48:48;14.45;;;7.93;;
63342;SDS011;49465;57.664;39.686;2022-08-30T16:51:36;14.65;;;8.45;;
63342;SDS011;49465;57.664;39.686;2022-08-30T16:54:31;14.02;;;7.82;;
63342;SDS011;49465;57.664;39.686;2022-08-30T16:57:20;13.18;;;8.23;;
63342;SDS011;49465;57.664;39.686;2022-08-30T17:00:10;15.32;;;7.97;;
63342;SDS011;49465;57.664;39.686;2022-08-30T17:03:03;14.13;;;7.82;;
63342;SDS011;49465;57.664;39.686;2022-08-30T17:05:37;11.15;;;7.53;;
63342;SDS011;49465;57.664;39.686;2022-08-30T17:08:22;14.00;;;7.07;;
63342;SDS011;49465;57.664;39.686;2022-08-30T17:11:03;14.85;;;7.53;;
63342;SDS011;49465;57.664;39.686;2022-08-30T17:13:56;14.52;;;6.88;;
63342;SDS011;49465;57.664;39.686;2022-08-30T17:16:32;13.32;;;6.88;;
63342;SDS011;49465;57.664;39.686;2022-08-30T17:19:19;16.60;;;7.20;;
63342;SDS011;49465;57.664;39.686;2022-08-30T17:22:00;9.97;;;6.83;;
63342;SDS011;49465;57.664;39.686;2022-08-30T17:24:38;14.35;;;6.55;;
63342;SDS011;49465;57.664;39.686;2022-08-30T17:27:24;8.63;;;6.15;;
63342;SDS011;49465;57.664;39.686;2022-08-30T17:30:05;10.98;;;6.22;;
63342;SDS011;49465;57.664;39.686;2022-08-30T17:32:46;10.65;;;6.15;;
63342;SDS011;49465;57.664;39.686;2022-08-30T17:35:43;13.02;;;6.72;;
63342;SDS011;49465;57.664;39.686;2022-08-30T17:38:30;9.85;;;6.07;;
63342;SDS011;49465;57.664;39.686;2022-08-30T17:41:22;10.43;;;6.00;;
63342;SDS011;49465;57.664;39.686;2022-08-30T17:44:16;11.13;;;6.70;;
63342;SDS011;49465;57.664;39.686;2022-08-30T17:47:04;13.48;;;6.28;;
63342;SDS011;49465;57.664;39.686;2022-08-30T17:49:47;12.18;;;6.28;;